Time;durP1;ratioP1;P1;durP2;ratioP2;P2;SDS_P1;SDS_P2;PMS_P1;PMS_P2;Temp;Humidity;BMP_temperature;BMP_pressure;BME280_temperature;BME280_humidity;BME280_pressure;Samples;Min_cycle;Max_cycle;Signal;HPM_P1;HPM_P2
2021/06/26 00:01:51;;;;;;;8.98;5.70;;;17.00;90.20;;;;;;5057103;28;20030;-85
2021/06/26 00:04:17;;;;;;;8.85;5.60;;;17.00;90.20;;;;;;5056292;28;20032;-90
2021/06/26 00:06:43;;;;;;;8.80;5.60;;;17.00;90.20;;;;;;5056617;28;20024;-83
2021/06/26 00:09:08;;;;;;;8.95;5.57;;;17.00;90.30;;;;;;5056610;28;20024;-85
2021/06/26 00:11:34;;;;;;;7.95;5.70;;;17.00;90.40;;;;;;5055987;28;20032;-85
2021/06/26 00:14:00;;;;;;;9.70;5.95;;;17.00;90.30;;;;;;5055919;28;20492;-82
2021/06/26 00:16:26;;;;;;;9.35;5.30;;;17.00;90.20;;;;;;5055870;28;20024;-85
2021/06/26 00:18:51;;;;;;;9.85;5.80;;;17.10;90.20;;;;;;5056448;28;20047;-84
2021/06/26 00:21:17;;;;;;;7.45;5.35;;;17.00;90.20;;;;;;5055925;28;20033;-86
2021/06/26 00:23:43;;;;;;;11.23;5.75;;;16.90;90.50;;;;;;5074283;28;20024;-84
2021/06/26 00:26:08;;;;;;;8.23;5.78;;;16.90;90.50;;;;;;5056390;28;20025;-84
2021/06/26 00:28:34;;;;;;;9.55;6.05;;;16.90;90.50;;;;;;5055977;28;20079;-85
2021/06/26 00:30:59;;;;;;;9.77;5.30;;;16.90;90.50;;;;;;5056454;28;20047;-84
2021/06/26 00:33:26;;;;;;;10.25;5.47;;;16.90;90.50;;;;;;5044110;28;20025;-84
2021/06/26 00:35:51;;;;;;;7.32;5.57;;;16.90;90.50;;;;;;5036495;28;20032;-86
2021/06/26 00:38:17;;;;;;;8.05;5.90;;;16.80;90.50;;;;;;5036137;28;20119;-89
2021/06/26 00:40:43;;;;;;;8.35;5.75;;;16.80;90.60;;;;;;5036280;28;20021;-85
2021/06/26 00:43:09;;;;;;;7.78;5.22;;;16.80;90.70;;;;;;5036327;28;20075;-84
2021/06/26 00:45:34;;;;;;;9.57;5.88;;;16.70;90.60;;;;;;5035710;28;20045;-85
2021/06/26 00:48:00;;;;;;;10.55;5.47;;;16.80;90.60;;;;;;5035646;28;20041;-85
2021/06/26 00:50:28;;;;;;;8.15;5.25;;;16.70;90.50;;;;;;5035606;28;20033;-85
2021/06/26 00:52:54;;;;;;;9.57;5.57;;;16.70;90.60;;;;;;5036047;28;20063;-85
2021/06/26 00:55:20;;;;;;;8.90;5.22;;;16.70;90.60;;;;;;5035954;28;20071;-90
2021/06/26 00:57:54;;;;;;;8.32;4.97;;;16.70;90.50;;;;;;5036104;28;20041;-86
2021/06/26 01:00:20;;;;;;;7.13;5.15;;;16.60;90.60;;;;;;5035992;28;20025;-91
2021/06/26 01:02:46;;;;;;;7.40;5.18;;;16.60;90.70;;;;;;5042495;28;20020;-85
2021/06/26 01:05:12;;;;;;;9.02;5.82;;;16.60;90.70;;;;;;5056145;28;20031;-86
2021/06/26 01:07:38;;;;;;;8.63;5.28;;;16.60;90.70;;;;;;5055756;28;20025;-86
2021/06/26 01:10:06;;;;;;;8.70;5.57;;;16.60;90.80;;;;;;5056021;28;20028;-86
2021/06/26 01:12:32;;;;;;;8.18;5.15;;;16.60;90.60;;;;;;5055306;28;20108;-87
2021/06/26 01:14:57;;;;;;;7.55;5.00;;;16.60;90.50;;;;;;5056226;28;20025;-86
2021/06/26 01:17:23;;;;;;;10.65;5.97;;;16.50;90.70;;;;;;5055434;28;20032;-86
2021/06/26 01:19:49;;;;;;;7.25;4.75;;;16.40;90.80;;;;;;5056159;28;20024;-85
2021/06/26 01:22:22;;;;;;;8.75;5.20;;;16.50;90.70;;;;;;5056068;28;20032;-86
2021/06/26 01:24:51;;;;;;;7.90;5.30;;;16.40;90.70;;;;;;5056230;28;20027;-85
2021/06/26 01:27:18;;;;;;;9.77;5.55;;;16.40;90.60;;;;;;5056078;28;20075;-85
2021/06/26 01:29:53;;;;;;;9.75;5.45;;;16.50;90.50;;;;;;5055748;28;20025;-85
2021/06/26 01:32:20;;;;;;;6.57;5.13;;;16.50;90.50;;;;;;5055688;28;20029;-88
2021/06/26 01:34:46;;;;;;;7.10;4.63;;;16.40;90.70;;;;;;5055730;28;20392;-85
2021/06/26 01:37:13;;;;;;;8.18;5.05;;;16.30;90.80;;;;;;5055222;28;20025;-84
2021/06/26 01:39:39;;;;;;;8.45;5.25;;;16.30;90.60;;;;;;5054854;28;20488;-86
2021/06/26 01:42:06;;;;;;;7.65;5.13;;;16.30;90.60;;;;;;5055525;28;20491;-85
2021/06/26 01:44:32;;;;;;;9.02;5.25;;;16.30;90.50;;;;;;5055004;28;20020;-85
2021/06/26 01:46:57;;;;;;;8.45;4.93;;;16.30;90.50;;;;;;5055776;28;20135;-84
2021/06/26 01:49:23;;;;;;;8.40;4.45;;;16.30;90.40;;;;;;5072619;28;20025;-86
2021/06/26 01:51:49;;;;;;;7.03;4.68;;;16.30;90.40;;;;;;5055416;28;20540;-85
2021/06/26 01:54:14;;;;;;;8.13;5.22;;;16.30;90.30;;;;;;5055677;28;20031;-85
2021/06/26 01:56:41;;;;;;;8.15;4.68;;;16.30;90.30;;;;;;5073144;28;20036;-85
2021/06/26 01:59:07;;;;;;;7.45;5.45;;;16.10;90.40;;;;;;5057634;28;20127;-85
2021/06/26 02:01:33;;;;;;;5.93;4.70;;;16.10;90.70;;;;;;5058930;28;20079;-85
2021/06/26 02:04:00;;;;;;;7.30;5.15;;;16.00;90.90;;;;;;5059551;28;20024;-85
2021/06/26 02:06:26;;;;;;;6.97;4.90;;;16.00;91.00;;;;;;5059087;28;20028;-85
2021/06/26 02:08:51;;;;;;;6.72;4.82;;;15.90;91.00;;;;;;5059341;28;20549;-85
2021/06/26 02:11:17;;;;;;;7.35;5.32;;;16.00;91.00;;;;;;5059377;28;20115;-85
2021/06/26 02:13:43;;;;;;;10.07;5.20;;;16.00;90.90;;;;;;5058808;28;20493;-84
2021/06/26 02:16:08;;;;;;;9.50;5.28;;;16.10;90.70;;;;;;5076747;28;20077;-85
2021/06/26 02:18:34;;;;;;;8.07;5.65;;;16.00;90.80;;;;;;5058587;28;20043;-84
2021/06/26 02:21:00;;;;;;;6.90;4.68;;;15.90;90.90;;;;;;5059142;28;20020;-85
2021/06/26 02:23:26;;;;;;;6.50;4.75;;;15.80;91.10;;;;;;5058631;28;20020;-85
2021/06/26 02:25:52;;;;;;;7.60;4.72;;;15.80;91.10;;;;;;5059331;28;20025;-85
2021/06/26 02:28:18;;;;;;;9.10;5.10;;;15.80;91.00;;;;;;5059002;28;20105;-85
2021/06/26 02:30:43;;;;;;;7.45;5.18;;;15.70;91.10;;;;;;5058547;28;20643;-85
2021/06/26 02:33:09;;;;;;;7.05;5.13;;;15.60;91.20;;;;;;5055335;28;20394;-85
2021/06/26 02:35:35;;;;;;;6.80;4.55;;;15.70;91.20;;;;;;5054908;28;20027;-87
2021/06/26 02:38:00;;;;;;;11.20;5.47;;;15.70;91.10;;;;;;5055347;28;20029;-87
2021/06/26 02:40:26;;;;;;;9.88;4.50;;;15.70;91.00;;;;;;5054523;28;20071;-87
2021/06/26 02:42:52;;;;;;;8.27;5.22;;;15.80;91.00;;;;;;5055077;28;20028;-87
2021/06/26 02:45:17;;;;;;;8.80;4.72;;;15.80;91.00;;;;;;5051760;28;20099;-86
2021/06/26 02:47:43;;;;;;;7.43;4.85;;;15.80;91.00;;;;;;5055153;28;20100;-86
2021/06/26 02:50:11;;;;;;;8.43;5.47;;;15.80;91.00;;;;;;5038772;28;20048;-86
2021/06/26 02:52:36;;;;;;;7.03;4.63;;;15.80;90.90;;;;;;5037654;28;20116;-87
2021/06/26 02:55:03;;;;;;;8.48;5.00;;;15.80;90.90;;;;;;5038253;28;20120;-87
2021/06/26 02:57:29;;;;;;;7.90;4.85;;;15.70;91.10;;;;;;5037494;28;20047;-87
2021/06/26 02:59:56;;;;;;;8.13;4.85;;;15.60;91.20;;;;;;5038182;28;20033;-87
2021/06/26 03:02:21;;;;;;;8.60;4.70;;;15.60;91.20;;;;;;5037888;28;20051;-88
2021/06/26 03:04:47;;;;;;;7.53;5.25;;;15.60;91.40;;;;;;5055515;28;20061;-85
2021/06/26 03:07:13;;;;;;;8.52;5.22;;;15.60;91.30;;;;;;5038048;28;20060;-85
2021/06/26 03:09:39;;;;;;;6.72;4.75;;;15.60;91.30;;;;;;5054652;28;20025;-85
2021/06/26 03:12:05;;;;;;;14.45;5.28;;;15.50;91.40;;;;;;5037713;28;20029;-86
2021/06/26 03:14:31;;;;;;;6.72;5.00;;;15.60;91.30;;;;;;5055041;28;20076;-84
2021/06/26 03:16:57;;;;;;;6.88;4.45;;;15.50;91.40;;;;;;5037538;28;20069;-85
2021/06/26 03:19:23;;;;;;;6.28;4.82;;;15.50;91.30;;;;;;5037674;28;20079;-87
2021/06/26 03:21:48;;;;;;;7.70;4.88;;;15.60;91.30;;;;;;5037431;28;20083;-85
2021/06/26 03:24:14;;;;;;;8.63;4.40;;;15.60;91.30;;;;;;5037998;28;20064;-85
2021/06/26 03:26:40;;;;;;;10.57;5.13;;;15.50;91.30;;;;;;5055068;28;20059;-84
2021/06/26 03:29:05;;;;;;;6.28;4.65;;;15.50;91.30;;;;;;5037787;28;20032;-84
2021/06/26 03:31:32;;;;;;;7.55;4.70;;;15.50;91.30;;;;;;5037278;28;20035;-85
2021/06/26 03:33:57;;;;;;;8.10;4.47;;;15.50;91.40;;;;;;5037673;28;20033;-83
2021/06/26 03:36:24;;;;;;;7.95;4.70;;;15.50;91.40;;;;;;5037385;28;20079;-85
2021/06/26 03:38:51;;;;;;;6.22;4.22;;;15.50;91.40;;;;;;5037046;28;20032;-84
2021/06/26 03:41:17;;;;;;;6.88;4.40;;;15.50;91.40;;;;;;5037679;28;20033;-84
2021/06/26 03:43:43;;;;;;;9.68;4.25;;;15.50;91.40;;;;;;5036716;28;20028;-84
2021/06/26 03:46:08;;;;;;;6.40;4.47;;;15.50;91.50;;;;;;5047101;28;20045;-84
2021/06/26 03:48:34;;;;;;;8.80;3.95;;;15.50;91.50;;;;;;5053336;28;20067;-84
2021/06/26 03:51:00;;;;;;;7.60;4.60;;;15.50;91.40;;;;;;5053689;28;20052;-84
2021/06/26 03:53:27;;;;;;;7.00;4.30;;;15.50;91.50;;;;;;5053542;28;20067;-87
2021/06/26 03:55:52;;;;;;;8.30;4.68;;;15.50;91.30;;;;;;5053814;28;20025;-84
2021/06/26 03:58:23;;;;;;;8.18;4.50;;;15.50;91.40;;;;;;5053179;28;20025;-84
2021/06/26 04:00:49;;;;;;;5.70;4.05;;;15.50;91.50;;;;;;5053231;28;20041;-84
2021/06/26 04:03:16;;;;;;;6.97;4.60;;;15.50;91.50;;;;;;5053507;28;20033;-85
2021/06/26 04:05:45;;;;;;;9.35;4.45;;;15.60;91.50;;;;;;5053182;28;20374;-86
2021/06/26 04:08:11;;;;;;;5.93;4.28;;;15.50;91.50;;;;;;5053327;28;20504;-86
2021/06/26 04:10:38;;;;;;;7.53;4.45;;;15.60;91.70;;;;;;5052477;28;20028;-86
2021/06/26 04:13:04;;;;;;;8.95;4.97;;;15.60;91.70;;;;;;5052505;28;20164;-86
2021/06/26 04:15:30;;;;;;;6.50;4.10;;;15.60;91.70;;;;;;5052712;28;20025;-85
2021/06/26 04:17:56;;;;;;;7.63;4.53;;;15.70;91.70;;;;;;5052993;28;20386;-85
2021/06/26 04:20:22;;;;;;;11.73;4.25;;;15.70;91.60;;;;;;5052930;28;20029;-85
2021/06/26 04:22:47;;;;;;;6.35;4.40;;;15.70;91.90;;;;;;5051839;28;20204;-85
2021/06/26 04:25:17;;;;;;;6.07;3.75;;;15.80;91.60;;;;;;5052909;28;20111;-85
2021/06/26 04:27:44;;;;;;;8.45;4.55;;;15.80;91.40;;;;;;5051891;28;20028;-85
2021/06/26 04:30:11;;;;;;;6.63;4.43;;;15.80;91.50;;;;;;5053717;28;20147;-86
2021/06/26 04:32:38;;;;;;;8.85;4.50;;;15.80;91.60;;;;;;5046929;28;20026;-85
2021/06/26 04:35:05;;;;;;;5.03;3.80;;;15.90;91.40;;;;;;5032805;28;20091;-85
2021/06/26 04:37:31;;;;;;;7.05;3.75;;;15.90;91.10;;;;;;5032102;28;20038;-85
2021/06/26 04:39:57;;;;;;;6.13;4.15;;;16.00;90.90;;;;;;5032433;28;20367;-85
2021/06/26 04:42:22;;;;;;;5.65;3.90;;;16.10;91.00;;;;;;5032855;28;20025;-85
2021/06/26 04:44:48;;;;;;;6.70;3.85;;;16.10;91.00;;;;;;5035529;28;20029;-84
2021/06/26 04:47:14;;;;;;;5.75;4.03;;;16.20;91.10;;;;;;5036219;28;20470;-85
2021/06/26 04:49:39;;;;;;;5.22;4.28;;;16.30;91.20;;;;;;5035845;28;20025;-85
2021/06/26 04:52:07;;;;;;;7.55;3.85;;;16.20;91.00;;;;;;5036313;28;20484;-84
2021/06/26 04:54:32;;;;;;;10.32;4.13;;;16.30;91.20;;;;;;5053538;28;20021;-85
2021/06/26 04:56:58;;;;;;;7.93;3.85;;;16.40;90.90;;;;;;5054061;28;20108;-84
2021/06/26 04:59:24;;;;;;;7.55;4.70;;;16.30;91.00;;;;;;5036263;28;20037;-84
2021/06/26 05:01:52;;;;;;;5.15;3.97;;;16.30;91.10;;;;;;5035658;28;20025;-85
2021/06/26 05:04:17;;;;;;;6.85;3.92;;;16.40;91.20;;;;;;5054771;28;20034;-85
2021/06/26 05:06:43;;;;;;;6.82;4.18;;;16.50;91.10;;;;;;5055718;28;20451;-85
2021/06/26 05:09:09;;;;;;;6.05;4.00;;;16.50;91.20;;;;;;5055918;28;20024;-85
2021/06/26 05:11:36;;;;;;;6.28;4.05;;;16.50;91.00;;;;;;5055254;28;20033;-86
2021/06/26 05:14:02;;;;;;;5.75;4.25;;;16.50;90.70;;;;;;5055810;28;20020;-85
2021/06/26 05:16:28;;;;;;;6.95;4.13;;;16.60;90.80;;;;;;5055207;28;20081;-86
2021/06/26 05:18:53;;;;;;;6.85;3.95;;;16.60;90.70;;;;;;5055528;28;20043;-85
2021/06/26 05:21:19;;;;;;;10.38;4.22;;;16.70;90.90;;;;;;5056055;28;20226;-85
2021/06/26 05:23:45;;;;;;;5.55;3.95;;;16.70;90.90;;;;;;5055249;28;20063;-85
2021/06/26 05:26:11;;;;;;;6.05;4.03;;;16.60;90.80;;;;;;5046303;28;20080;-83
2021/06/26 05:28:37;;;;;;;8.80;4.88;;;16.70;90.90;;;;;;5034927;28;20476;-84
2021/06/26 05:31:04;;;;;;;6.32;4.05;;;16.70;90.80;;;;;;5035649;28;20064;-83
2021/06/26 05:33:29;;;;;;;6.93;4.45;;;16.80;90.80;;;;;;5036530;28;20043;-87
2021/06/26 05:35:55;;;;;;;7.55;4.22;;;16.80;90.90;;;;;;5048606;28;20517;-87
2021/06/26 05:38:20;;;;;;;6.32;4.38;;;16.80;91.00;;;;;;5060563;28;20028;-86
2021/06/26 05:40:46;;;;;;;11.15;4.78;;;16.80;90.90;;;;;;5059512;28;20035;-86
2021/06/26 05:43:12;;;;;;;9.68;4.70;;;16.80;90.80;;;;;;5059288;28;20025;-87
2021/06/26 05:45:39;;;;;;;6.90;4.18;;;16.90;90.70;;;;;;5055104;28;20052;-86
2021/06/26 05:48:05;;;;;;;7.97;4.40;;;17.00;90.60;;;;;;5077057;28;20033;-86
2021/06/26 05:50:31;;;;;;;6.97;4.10;;;17.00;90.40;;;;;;5055671;28;20060;-89
2021/06/26 05:52:57;;;;;;;6.72;4.20;;;17.10;90.50;;;;;;5056698;28;20021;-85
2021/06/26 05:55:27;;;;;;;8.25;4.30;;;17.10;90.40;;;;;;5042642;28;20470;-85
2021/06/26 05:57:54;;;;;;;8.88;4.40;;;17.10;90.50;;;;;;5058201;28;20033;-85
2021/06/26 06:00:21;;;;;;;6.25;4.28;;;17.20;90.30;;;;;;5059523;28;20044;-85
2021/06/26 06:02:48;;;;;;;7.32;4.20;;;17.30;90.30;;;;;;5058646;28;20025;-85
2021/06/26 06:05:15;;;;;;;8.80;4.22;;;17.30;90.10;;;;;;5057965;28;20259;-85
2021/06/26 06:07:42;;;;;;;7.78;4.10;;;17.30;89.40;;;;;;5074985;28;20032;-86
2021/06/26 06:10:10;;;;;;;5.78;4.07;;;17.30;89.00;;;;;;5059302;28;20111;-85
2021/06/26 06:12:37;;;;;;;7.13;4.55;;;17.40;89.50;;;;;;5058677;28;20044;-85
2021/06/26 06:15:06;;;;;;;9.15;4.43;;;17.50;89.80;;;;;;5059195;28;20024;-85
2021/06/26 06:17:32;;;;;;;9.40;5.18;;;17.60;89.80;;;;;;5038726;28;20044;-88
2021/06/26 06:19:57;;;;;;;5.47;4.25;;;17.70;89.70;;;;;;5056878;28;20028;-85
2021/06/26 06:22:26;;;;;;;8.45;4.63;;;17.70;89.00;;;;;;5039221;28;20056;-84
2021/06/26 06:24:52;;;;;;;8.73;5.00;;;17.70;88.80;;;;;;5038352;28;20031;-84
2021/06/26 06:27:18;;;;;;;6.57;4.25;;;17.80;88.70;;;;;;5057389;28;20123;-85
2021/06/26 06:29:44;;;;;;;6.05;4.35;;;17.90;88.30;;;;;;5058549;28;20029;-85
2021/06/26 06:32:09;;;;;;;9.35;4.75;;;18.00;87.70;;;;;;5058292;28;20066;-85
2021/06/26 06:34:35;;;;;;;6.78;4.22;;;18.10;88.20;;;;;;5075931;28;20029;-85
2021/06/26 06:37:01;;;;;;;7.55;4.43;;;18.10;88.30;;;;;;5058685;28;20094;-85
2021/06/26 06:39:27;;;;;;;6.75;4.25;;;18.20;88.10;;;;;;5058652;28;20040;-85
2021/06/26 06:41:53;;;;;;;6.50;4.28;;;18.30;87.60;;;;;;5057378;28;20035;-85
2021/06/26 06:44:19;;;;;;;9.85;4.63;;;18.40;86.50;;;;;;5045337;28;20029;-84
2021/06/26 06:46:44;;;;;;;7.63;3.97;;;18.50;86.40;;;;;;5038770;28;20052;-88
2021/06/26 06:49:10;;;;;;;4.72;3.88;;;18.50;85.20;;;;;;5038364;28;20072;-89
2021/06/26 06:51:37;;;;;;;8.20;4.30;;;18.70;85.30;;;;;;5037521;28;20025;-88
2021/06/26 06:54:03;;;;;;;6.57;4.00;;;18.80;85.30;;;;;;5044141;28;20029;-88
2021/06/26 06:56:29;;;;;;;7.85;4.60;;;18.80;84.80;;;;;;5058447;28;20032;-84
2021/06/26 06:58:55;;;;;;;6.30;4.75;;;18.90;84.00;;;;;;5057072;28;20040;-84
2021/06/26 07:01:20;;;;;;;4.82;4.10;;;19.00;83.90;;;;;;5058276;28;20039;-84
2021/06/26 07:03:46;;;;;;;8.60;4.20;;;19.00;84.00;;;;;;5043195;28;20025;-84
2021/06/26 07:06:12;;;;;;;6.53;4.32;;;19.10;84.40;;;;;;5047455;28;20023;-83
2021/06/26 07:08:37;;;;;;;6.70;4.15;;;19.20;84.40;;;;;;5057805;28;20392;-84
2021/06/26 07:11:03;;;;;;;6.13;3.97;;;19.20;83.90;;;;;;5058172;28;20028;-84
2021/06/26 07:13:29;;;;;;;5.28;4.28;;;19.30;83.40;;;;;;5063934;28;20032;-84
2021/06/26 07:15:55;;;;;;;5.93;4.32;;;19.40;82.90;;;;;;5044455;28;20465;-85
2021/06/26 07:18:21;;;;;;;5.88;4.40;;;19.40;82.70;;;;;;5057423;28;20063;-86
2021/06/26 07:20:47;;;;;;;5.68;4.00;;;19.50;82.80;;;;;;5057025;28;20469;-86
2021/06/26 07:23:12;;;;;;;6.78;4.40;;;19.60;82.60;;;;;;5058234;28;20042;-86
2021/06/26 07:25:38;;;;;;;8.10;4.07;;;19.60;81.80;;;;;;5052350;28;20421;-86
2021/06/26 07:28:04;;;;;;;5.25;3.88;;;19.80;82.50;;;;;;5038129;28;20036;-85
2021/06/26 07:30:30;;;;;;;8.00;4.38;;;19.80;83.10;;;;;;5037850;28;20025;-86
2021/06/26 07:32:56;;;;;;;5.00;3.88;;;19.90;81.80;;;;;;5040398;28;20013;-86
2021/06/26 07:35:22;;;;;;;5.80;4.03;;;20.00;80.80;;;;;;5057414;28;20025;-85
2021/06/26 07:37:47;;;;;;;6.75;3.67;;;20.10;80.90;;;;;;5040192;28;20116;-86
2021/06/26 07:40:17;;;;;;;5.93;3.97;;;20.20;79.30;;;;;;5057268;28;20078;-85
2021/06/26 07:42:43;;;;;;;7.70;3.97;;;20.20;78.60;;;;;;5056807;28;20060;-85
2021/06/26 07:45:10;;;;;;;5.63;3.90;;;20.30;78.30;;;;;;5056776;28;20044;-86
2021/06/26 07:47:36;;;;;;;8.13;4.70;;;20.40;78.00;;;;;;5056926;28;20120;-85
2021/06/26 07:50:04;;;;;;;9.85;4.38;;;20.40;78.30;;;;;;5074650;28;20095;-85
2021/06/26 07:52:29;;;;;;;7.70;4.15;;;20.60;79.30;;;;;;5057196;28;20016;-84
2021/06/26 07:54:55;;;;;;;10.10;4.43;;;20.60;80.30;;;;;;5056279;28;20416;-85
2021/06/26 07:57:21;;;;;;;6.10;4.22;;;20.60;79.50;;;;;;5056209;28;20025;-84
2021/06/26 07:59:46;;;;;;;6.47;4.05;;;20.50;78.90;;;;;;5056548;28;20056;-84
2021/06/26 08:02:12;;;;;;;8.32;4.30;;;20.60;78.50;;;;;;5056546;28;20050;-84
2021/06/26 08:04:37;;;;;;;6.57;4.30;;;20.60;78.90;;;;;;5074189;28;20516;-84
2021/06/26 08:07:03;;;;;;;5.95;3.60;;;20.60;79.30;;;;;;5043907;28;20496;-85
2021/06/26 08:09:29;;;;;;;11.45;4.63;;;20.60;79.30;;;;;;5036956;28;20024;-85
2021/06/26 08:11:55;;;;;;;9.05;3.97;;;20.40;79.60;;;;;;5053993;28;20059;-85
2021/06/26 08:14:20;;;;;;;7.85;4.80;;;20.30;80.10;;;;;;5051448;28;20020;-85
2021/06/26 08:16:46;;;;;;;7.00;4.43;;;20.40;80.40;;;;;;5046029;28;20076;-84
2021/06/26 08:19:12;;;;;;;5.95;4.10;;;20.40;79.60;;;;;;5036681;28;20029;-85
2021/06/26 08:21:38;;;;;;;8.95;4.57;;;20.50;80.00;;;;;;5036134;28;20032;-85
2021/06/26 08:24:04;;;;;;;6.82;4.32;;;20.60;79.50;;;;;;5036635;28;20025;-86
2021/06/26 08:26:30;;;;;;;7.60;4.72;;;20.70;79.20;;;;;;5036657;28;20090;-87
2021/06/26 08:28:56;;;;;;;6.00;4.30;;;20.70;79.40;;;;;;5036414;28;20416;-87
2021/06/26 08:31:21;;;;;;;8.63;4.40;;;20.80;78.70;;;;;;5036679;28;20404;-88
2021/06/26 08:33:47;;;;;;;5.45;3.92;;;20.80;78.30;;;;;;5063365;28;20103;-87
2021/06/26 08:36:13;;;;;;;7.63;4.47;;;20.90;77.90;;;;;;5049971;28;20071;-86
2021/06/26 08:38:39;;;;;;;7.18;4.40;;;21.00;77.80;;;;;;5053545;28;20079;-86
2021/06/26 08:41:05;;;;;;;6.07;4.13;;;21.00;77.30;;;;;;5039771;28;20038;-85
2021/06/26 08:43:33;;;;;;;7.43;4.43;;;21.10;77.40;;;;;;5047624;28;20020;-86
2021/06/26 08:46:00;;;;;;;6.03;3.88;;;21.20;76.10;;;;;;5046451;28;20032;-85
2021/06/26 08:48:26;;;;;;;5.43;4.10;;;21.20;74.60;;;;;;5056157;28;20028;-85
2021/06/26 08:50:52;;;;;;;6.20;4.30;;;21.30;73.30;;;;;;5036572;28;20021;-86
2021/06/26 08:53:17;;;;;;;7.97;4.40;;;21.40;74.20;;;;;;5050267;28;20162;-85
2021/06/26 08:55:43;;;;;;;8.50;4.78;;;21.50;74.60;;;;;;5054285;28;20059;-86
2021/06/26 08:58:09;;;;;;;8.63;4.15;;;21.60;75.10;;;;;;5048045;28;20021;-85
2021/06/26 09:00:39;;;;;;;7.60;4.13;;;21.70;73.20;;;;;;5035997;28;20040;-86
2021/06/26 09:03:12;;;;;;;6.22;3.42;;;21.80;72.30;;;;;;5048026;28;20025;-86
2021/06/26 09:05:39;;;;;;;6.78;4.63;;;21.80;70.60;;;;;;5055462;28;20032;-86
2021/06/26 09:08:17;;;;;;;6.22;4.13;;;21.90;70.90;;;;;;5035230;28;20036;-85
2021/06/26 09:10:44;;;;;;;6.10;4.30;;;21.90;71.00;;;;;;5035689;28;20075;-85
2021/06/26 09:13:16;;;;;;;6.88;4.38;;;21.90;71.00;;;;;;5040178;28;20070;-84
2021/06/26 09:15:43;;;;;;;5.93;4.30;;;21.90;72.20;;;;;;5055574;28;20028;-85
2021/06/26 09:18:15;;;;;;;6.57;4.43;;;21.90;72.50;;;;;;5055589;28;20059;-85
2021/06/26 09:20:44;;;;;;;6.22;4.30;;;22.00;71.50;;;;;;5055444;28;20028;-85
2021/06/26 09:23:35;;;;;;;6.65;4.55;;;22.00;72.40;;;;;;5056051;28;20030;-85
2021/06/26 09:26:11;;;;;;;6.20;4.07;;;22.00;72.90;;;;;;5055734;28;20401;-85
2021/06/26 09:28:39;;;;;;;5.90;4.53;;;22.00;72.60;;;;;;5055920;28;20075;-85
2021/06/26 09:31:15;;;;;;;6.22;4.90;;;22.00;72.50;;;;;;5055841;28;20102;-85
2021/06/26 09:33:41;;;;;;;7.82;4.57;;;21.90;72.90;;;;;;5055331;28;20042;-86
2021/06/26 09:36:09;;;;;;;6.95;4.35;;;21.90;73.00;;;;;;5055954;28;20441;-85
2021/06/26 09:38:55;;;;;;;7.50;4.50;;;21.90;72.70;;;;;;5055418;28;20422;-85
2021/06/26 09:41:21;;;;;;;7.20;4.90;;;21.80;72.90;;;;;;5055890;28;20028;-95
2021/06/26 09:43:46;;;;;;;8.55;5.13;;;21.80;73.60;;;;;;5055462;28;20364;-93
2021/06/26 09:46:18;;;;;;;5.82;4.47;;;21.80;73.90;;;;;;5055749;28;20460;-91
2021/06/26 09:48:54;;;;;;;9.50;4.82;;;21.80;73.60;;;;;;5056218;28;20025;-89
2021/06/26 09:51:27;;;;;;;6.68;4.60;;;21.80;73.70;;;;;;5055918;28;20074;-84
2021/06/26 09:54:00;;;;;;;9.60;4.75;;;21.70;74.40;;;;;;5055027;28;20017;-85
2021/06/26 09:56:46;;;;;;;6.78;4.53;;;21.90;74.00;;;;;;5055874;28;20031;-92
2021/06/26 09:59:17;;;;;;;6.50;3.60;;;21.90;74.20;;;;;;5055211;28;20131;-92
2021/06/26 10:01:45;;;;;;;6.07;4.23;;;21.80;71.20;;;;;;5055503;28;20096;-92
2021/06/26 10:04:32;;;;;;;6.47;4.30;;;21.90;71.40;;;;;;5055891;28;20024;-91
2021/06/26 10:06:59;;;;;;;6.13;4.13;;;22.00;72.60;;;;;;5039427;28;20032;-91
2021/06/26 10:09:25;;;;;;;6.82;4.40;;;22.00;70.10;;;;;;5050572;28;20086;-92
2021/06/26 10:11:54;;;;;;;6.53;4.40;;;21.90;69.20;;;;;;5037802;28;20078;-93
2021/06/26 10:14:20;;;;;;;5.63;4.22;;;21.90;69.50;;;;;;5042299;28;20021;-88
2021/06/26 10:16:46;;;;;;;25.48;13.80;;;21.90;72.40;;;;;;5044177;28;20017;-93
2021/06/26 10:19:13;;;;;;;16.92;10.18;;;22.00;76.90;;;;;;5056067;28;20021;-88
2021/06/26 10:21:40;;;;;;;6.93;5.07;;;22.00;73.70;;;;;;5059543;28;20032;-88
2021/06/26 10:26:56;;;;;;;5.85;4.50;;;22.00;72.90;;;;;;5077574;28;20119;-88
2021/06/26 10:29:36;;;;;;;6.57;5.07;;;22.00;72.70;;;;;;5059685;28;20060;-93
2021/06/26 10:32:10;;;;;;;6.78;4.45;;;22.00;72.20;;;;;;5059006;28;20441;-92
2021/06/26 10:34:43;;;;;;;6.30;4.68;;;21.90;72.10;;;;;;5050411;28;20025;-89
2021/06/26 10:37:19;;;;;;;6.88;4.43;;;22.00;72.50;;;;;;5038452;28;20028;-88
2021/06/26 10:39:46;;;;;;;7.15;4.68;;;22.10;70.90;;;;;;5038224;28;20047;-90
2021/06/26 10:42:15;;;;;;;8.73;4.22;;;22.10;70.30;;;;;;5039196;28;20101;-89
2021/06/26 10:44:52;;;;;;;5.63;4.20;;;22.10;71.20;;;;;;5058700;28;20068;-91
2021/06/26 10:47:40;;;;;;;7.80;4.63;;;22.20;70.70;;;;;;5058875;28;20471;-91
2021/06/26 10:50:12;;;;;;;5.82;4.50;;;22.20;71.10;;;;;;5051250;28;20532;-93
2021/06/26 10:52:49;;;;;;;7.20;5.28;;;22.40;70.30;;;;;;5056824;28;20017;-92
2021/06/26 10:55:33;;;;;;;6.50;3.92;;;22.50;69.40;;;;;;5038876;28;20032;-91
2021/06/26 10:58:01;;;;;;;5.53;4.00;;;22.60;69.20;;;;;;5047052;28;20035;-91
2021/06/26 11:00:33;;;;;;;4.75;4.00;;;22.50;69.10;;;;;;5047790;28;20060;-91
2021/06/26 11:02:59;;;;;;;5.07;4.25;;;22.50;69.70;;;;;;5051135;28;20017;-89
2021/06/26 11:05:34;;;;;;;5.57;3.90;;;22.60;69.80;;;;;;5034132;28;20037;-91
2021/06/26 11:08:00;;;;;;;5.03;3.50;;;22.60;71.00;;;;;;5049118;28;20028;-92
2021/06/26 11:10:26;;;;;;;4.57;3.60;;;22.70;70.30;;;;;;5050356;28;20086;-93
2021/06/26 11:12:52;;;;;;;5.10;3.90;;;22.80;68.20;;;;;;5049728;28;20098;-94
2021/06/26 11:15:29;;;;;;;6.30;4.20;;;22.90;68.90;;;;;;5053800;28;20021;-94
2021/06/26 11:17:56;;;;;;;4.47;3.58;;;23.00;68.80;;;;;;5046778;28;20033;-90
2021/06/26 11:20:22;;;;;;;5.25;3.50;;;23.10;67.30;;;;;;5049351;28;20032;-93
2021/06/26 11:22:53;;;;;;;4.18;3.60;;;23.10;67.80;;;;;;5046107;28;20021;-90
2021/06/26 11:25:20;;;;;;;4.82;3.60;;;23.30;66.00;;;;;;5049143;28;20381;-90
2021/06/26 11:27:46;;;;;;;5.97;3.72;;;23.20;65.60;;;;;;5051443;28;20482;-90
2021/06/26 11:30:13;;;;;;;4.20;3.45;;;23.20;67.20;;;;;;5047538;28;20039;-89
2021/06/26 11:32:39;;;;;;;5.40;3.28;;;23.20;67.00;;;;;;5044287;28;20027;-90
2021/06/26 11:35:15;;;;;;;4.05;3.05;;;23.20;65.60;;;;;;5051891;28;20020;-93
2021/06/26 11:37:47;;;;;;;6.05;3.28;;;23.20;64.50;;;;;;5045502;28;20029;-93
2021/06/26 11:40:13;;;;;;;4.65;3.22;;;23.30;65.60;;;;;;5070495;28;20020;-92
2021/06/26 11:42:53;;;;;;;4.53;3.50;;;23.50;65.00;;;;;;5050139;28;20026;-88
2021/06/26 11:45:22;;;;;;;4.75;3.15;;;23.50;63.70;;;;;;5035517;28;20080;-88
2021/06/26 11:47:48;;;;;;;5.22;3.40;;;23.50;62.80;;;;;;5053123;28;20082;-91
2021/06/26 11:50:20;;;;;;;3.75;2.80;;;23.40;62.40;;;;;;5024373;28;20375;-93
2021/06/26 11:52:46;;;;;;;5.38;3.00;;;23.50;65.10;;;;;;5042786;28;20025;-92
2021/06/26 11:55:12;;;;;;;3.92;2.88;;;23.50;63.40;;;;;;5039365;28;20082;-91
2021/06/26 11:57:38;;;;;;;3.85;2.88;;;23.60;63.60;;;;;;5046848;28;20017;-88
2021/06/26 12:00:06;;;;;;;5.45;3.10;;;23.60;61.80;;;;;;5039378;28;20017;-90
2021/06/26 12:02:39;;;;;;;3.17;2.72;;;23.60;61.30;;;;;;5038151;28;20369;-90
2021/06/26 12:05:17;;;;;;;3.58;2.95;;;23.70;63.30;;;;;;5036806;28;20082;-89
2021/06/26 12:07:49;;;;;;;3.38;3.03;;;23.70;64.30;;;;;;5050334;28;20021;-93
2021/06/26 12:10:22;;;;;;;;;;;23.80;63.60;;;;;;5038954;28;20040;-90
2021/06/26 12:12:48;;;;;;;3.75;2.80;;;23.90;62.60;;;;;;5033558;28;19905;-89
2021/06/26 12:15:14;;;;;;;4.60;3.10;;;24.10;64.00;;;;;;5033809;28;20024;-89
2021/06/26 12:17:40;;;;;;;4.30;3.25;;;24.30;64.30;;;;;;5042110;28;20079;-80
2021/06/26 12:20:13;;;;;;;4.25;3.10;;;24.40;61.00;;;;;;5050085;28;20053;-89
2021/06/26 12:22:39;;;;;;;3.72;3.08;;;24.60;62.10;;;;;;5054315;28;20079;-92
2021/06/26 12:25:10;;;;;;;3.13;2.83;;;24.90;62.00;;;;;;5034477;28;20022;-94
2021/06/26 12:27:36;;;;;;;;;;;25.10;60.90;;;;;;5042036;28;20032;-90
2021/06/26 12:30:16;;;;;;;4.22;2.83;;;25.30;58.40;;;;;;5035919;28;19901;-90
2021/06/26 12:32:43;;;;;;;3.10;2.70;;;25.40;59.70;;;;;;5045351;28;20120;-88
2021/06/26 12:35:11;;;;;;;3.90;2.78;;;25.50;59.40;;;;;;5044680;28;20020;-90
2021/06/26 12:37:43;;;;;;;3.30;3.00;;;25.70;61.70;;;;;;5052949;28;20358;-88
2021/06/26 12:40:22;;;;;;;3.63;2.75;;;25.80;59.80;;;;;;5049111;28;20033;-87
2021/06/26 12:43:09;;;;;;;4.30;2.90;;;25.80;58.70;;;;;;5032234;28;20033;-84
2021/06/26 12:45:46;;;;;;;4.97;2.85;;;25.80;57.50;;;;;;5041533;28;20055;-83
2021/06/26 12:48:27;;;;;;;4.15;2.88;;;25.80;55.80;;;;;;5045286;28;20090;-86
2021/06/26 12:51:05;;;;;;;3.00;2.60;;;25.90;57.20;;;;;;5045770;28;20119;-85
2021/06/26 12:53:32;;;;;;;3.90;2.90;;;26.00;56.10;;;;;;5054188;28;20025;-87